Time;durP1;ratioP1;P1;durP2;ratioP2;P2;SDS_P1;SDS_P2;PMS_P1;PMS_P2;Temp;Humidity;BMP_temperature;BMP_pressure;BME280_temperature;BME280_humidity;BME280_pressure;Samples;Min_cycle;Max_cycle;Signal;HPM_P1;HPM_P2
2022/09/28 00:01:09;;;;;;;2.00;1.90;;;;;;;;;;5055274;28;20201;-85
2022/09/28 00:03:37;;;;;;;2.70;1.88;;;;;;;;;;5046508;28;20283;-84
2022/09/28 00:06:07;;;;;;;2.25;2.05;;;;;;;;;;5035255;28;20199;-85
2022/09/28 00:08:36;;;;;;;1.98;1.88;;;;;;;;;;5034702;28;20226;-86
2022/09/28 00:11:05;;;;;;;1.60;1.50;;;;;;;;;;5035050;28;20198;-85
2022/09/28 00:13:33;;;;;;;2.05;1.85;;;;;;;;;;5035212;28;20209;-84
2022/09/28 00:16:04;;;;;;;1.92;1.83;;;;;;;;;;5034325;28;20234;-85
2022/09/28 00:18:32;;;;;;;2.25;1.95;;;;;;;;;;5034623;28;20205;-86
2022/09/28 00:21:08;;;;;;;1.52;1.42;;;;;;;;;;5034434;28;20229;-85
2022/09/28 00:24:11;;;;;;;1.75;1.65;;;;;;;;;;5034666;28;20206;-86
2022/09/28 00:26:26;;;;;;;2.00;1.80;;;;;;;;;;5034463;28;20206;-85
2022/09/28 00:28:54;;;;;;;2.20;1.98;;;;;;;;;;5048955;28;20304;-85
2022/09/28 00:31:24;;;;;;;1.85;1.75;;;;;;;;;;5053438;28;20572;-86
2022/09/28 00:33:51;;;;;;;1.95;1.85;;;;;;;;;;5034063;28;20213;-86
2022/09/28 00:36:19;;;;;;;1.88;1.77;;;;;;;;;;5034137;28;20225;-86
2022/09/28 00:38:47;;;;;;;2.30;2.10;;;;;;;;;;5034127;28;20282;-85
2022/09/28 00:41:15;;;;;;;1.90;1.80;;;;;;;;;;5034270;28;20228;-85
2022/09/28 00:43:43;;;;;;;1.80;1.70;;;;;;;;;;5034075;28;20289;-85
2022/09/28 00:46:14;;;;;;;2.00;1.80;;;;;;;;;;5033502;28;20293;-86
2022/09/28 00:48:50;;;;;;;2.00;1.60;;;;;;;;;;5033089;28;20318;-85
2022/09/28 00:51:18;;;;;;;2.13;1.80;;;;;;;;;;5034144;28;20703;-85
2022/09/28 00:53:46;;;;;;;2.33;2.20;;;;;;;;;;5047323;28;20289;-85
2022/09/28 00:56:17;;;;;;;2.78;1.98;;;;;;;;;;5033801;28;20298;-86
2022/09/28 00:58:48;;;;;;;5.45;2.33;;;;;;;;;;5046586;28;20189;-85
2022/09/28 01:01:15;;;;;;;2.35;2.15;;;;;;;;;;5053692;28;20273;-86
2022/09/28 01:03:47;;;;;;;2.42;2.33;;;;;;;;;;5053453;28;20681;-86
2022/09/28 01:06:19;;;;;;;2.15;1.70;;;;;;;;;;5053446;28;20616;-86
2022/09/28 01:08:50;;;;;;;2.53;2.25;;;;;;;;;;5053598;28;20213;-86
2022/09/28 01:11:18;;;;;;;2.30;2.10;;;;;;;;;;5053271;28;20289;-86
2022/09/28 01:13:47;;;;;;;2.28;1.95;;;;;;;;;;5053533;28;20269;-86
2022/09/28 01:16:24;;;;;;;2.40;2.20;;;;;;;;;;5052263;28;20205;-87
2022/09/28 01:19:05;;;;;;;2.85;2.28;;;;;;;;;;5053335;28;20182;-86
2022/09/28 01:21:39;;;;;;;1.85;1.75;;;;;;;;;;5053204;28;20271;-86
2022/09/28 01:24:30;;;;;;;2.28;2.17;;;;;;;;;;5053272;28;20705;-86
2022/09/28 01:27:05;;;;;;;2.10;1.90;;;;;;;;;;5052936;28;20782;-86
2022/09/28 01:29:42;;;;;;;2.50;2.30;;;;;;;;;;5052817;28;20201;-86
2022/09/28 01:32:26;;;;;;;2.30;2.15;;;;;;;;;;5053141;28;20229;-86
2022/09/28 01:35:00;;;;;;;2.10;1.88;;;;;;;;;;5052810;28;20285;-87
2022/09/28 01:37:33;;;;;;;2.70;2.00;;;;;;;;;;5053117;28;20186;-86
2022/09/28 01:40:03;;;;;;;2.78;2.58;;;;;;;;;;5053316;28;20196;-88
2022/09/28 01:42:34;;;;;;;1.92;1.83;;;;;;;;;;5053007;28;20218;-87
2022/09/28 01:45:07;;;;;;;2.80;2.60;;;;;;;;;;5053041;28;20209;-86
2022/09/28 01:47:49;;;;;;;2.10;2.00;;;;;;;;;;5052972;28;20272;-87
2022/09/28 01:50:20;;;;;;;2.42;2.22;;;;;;;;;;5052923;28;20288;-87
2022/09/28 01:52:54;;;;;;;3.25;2.53;;;;;;;;;;5052959;28;20224;-87
2022/09/28 01:55:29;;;;;;;2.17;1.98;;;;;;;;;;5052765;28;20177;-87
2022/09/28 01:58:03;;;;;;;2.33;2.03;;;;;;;;;;5053008;28;20221;-87
2022/09/28 02:00:31;;;;;;;3.13;2.83;;;;;;;;;;5052783;28;20224;-87
2022/09/28 02:03:02;;;;;;;2.83;2.63;;;;;;;;;;5052687;28;20260;-88
2022/09/28 02:05:33;;;;;;;2.30;2.15;;;;;;;;;;5052806;28;20630;-87
2022/09/28 02:08:06;;;;;;;2.70;2.50;;;;;;;;;;5052783;28;20244;-88
2022/09/28 02:10:39;;;;;;;2.35;2.20;;;;;;;;;;5052607;28;20271;-88
2022/09/28 02:13:12;;;;;;;2.28;2.13;;;;;;;;;;5052667;28;20252;-87
2022/09/28 02:15:45;;;;;;;2.35;2.22;;;;;;;;;;5052862;28;20236;-87
2022/09/28 02:18:13;;;;;;;1.85;1.75;;;;;;;;;;5052677;28;20194;-88
2022/09/28 02:20:46;;;;;;;2.33;1.90;;;;;;;;;;5052565;28;20300;-87
2022/09/28 02:23:14;;;;;;;2.30;2.20;;;;;;;;;;5052647;28;20275;-87
2022/09/28 02:25:45;;;;;;;2.30;2.17;;;;;;;;;;5052587;28;20206;-88
2022/09/28 02:28:14;;;;;;;1.58;1.48;;;;;;;;;;5056616;28;20178;-87
2022/09/28 02:30:46;;;;;;;1.85;1.75;;;;;;;;;;5056303;28;20253;-87
2022/09/28 02:33:16;;;;;;;1.45;1.35;;;;;;;;;;5056426;28;20249;-87
2022/09/28 02:35:44;;;;;;;1.70;1.60;;;;;;;;;;5056154;28;20255;-87
2022/09/28 02:38:12;;;;;;;2.30;1.95;;;;;;;;;;5056039;28;20249;-87
2022/09/28 02:40:40;;;;;;;1.20;1.20;;;;;;;;;;5056297;28;20210;-87
2022/09/28 02:43:16;;;;;;;1.10;1.10;;;;;;;;;;5055966;28;20312;-87
2022/09/28 02:45:57;;;;;;;2.20;1.20;;;;;;;;;;5056074;28;20713;-88
2022/09/28 02:48:55;;;;;;;2.05;1.50;;;;;;;;;;5056081;28;20197;-88
2022/09/28 02:51:30;;;;;;;1.35;1.25;;;;;;;;;;5055860;28;20272;-87
2022/09/28 02:54:23;;;;;;;0.82;0.82;;;;;;;;;;5056209;28;20273;-87
2022/09/28 02:57:12;;;;;;;1.10;1.00;;;;;;;;;;5055779;28;20268;-87
2022/09/28 02:59:49;;;;;;;1.10;1.10;;;;;;;;;;5055782;28;20284;-88
2022/09/28 03:02:26;;;;;;;1.20;1.10;;;;;;;;;;5055705;28;20217;-87
2022/09/28 03:05:06;;;;;;;1.45;1.35;;;;;;;;;;5055711;28;20205;-88
2022/09/28 03:07:38;;;;;;;0.98;0.93;;;;;;;;;;5056046;28;20190;-87
2022/09/28 03:10:11;;;;;;;1.10;1.00;;;;;;;;;;5055617;28;20248;-87
2022/09/28 03:12:39;;;;;;;1.35;1.25;;;;;;;;;;5055620;28;20222;-87
2022/09/28 03:15:12;;;;;;;0.95;0.95;;;;;;;;;;5055646;28;20225;-87
2022/09/28 03:17:40;;;;;;;1.20;1.10;;;;;;;;;;5055794;28;20265;-87
2022/09/28 03:20:10;;;;;;;0.80;0.80;;;;;;;;;;5055366;28;20292;-87
2022/09/28 03:22:38;;;;;;;1.10;1.10;;;;;;;;;;5055260;28;20229;-87
2022/09/28 03:25:07;;;;;;;1.02;1.02;;;;;;;;;;5055409;28;20256;-87
2022/09/28 03:27:35;;;;;;;0.98;0.98;;;;;;;;;;5055566;28;20193;-88
2022/09/28 03:30:03;;;;;;;1.00;1.00;;;;;;;;;;5055214;28;20275;-87
2022/09/28 03:32:32;;;;;;;0.90;0.90;;;;;;;;;;5055202;28;20312;-87
2022/09/28 03:34:59;;;;;;;1.23;1.23;;;;;;;;;;5054979;28;20252;-87
2022/09/28 03:37:27;;;;;;;1.48;1.40;;;;;;;;;;5054035;28;20241;-88
2022/09/28 03:39:55;;;;;;;1.00;1.00;;;;;;;;;;5054908;28;20204;-87
2022/09/28 03:42:22;;;;;;;1.20;1.20;;;;;;;;;;5055358;28;20632;-87
2022/09/28 03:44:50;;;;;;;1.05;1.05;;;;;;;;;;5055190;28;20701;-87
2022/09/28 03:47:18;;;;;;;1.60;1.50;;;;;;;;;;5054998;28;20212;-87
2022/09/28 03:49:47;;;;;;;1.80;1.70;;;;;;;;;;5055096;28;20272;-87
2022/09/28 03:52:15;;;;;;;1.00;1.00;;;;;;;;;;5054896;28;20283;-87
2022/09/28 03:54:42;;;;;;;1.00;0.98;;;;;;;;;;5055027;28;20212;-87
2022/09/28 03:57:10;;;;;;;0.82;0.82;;;;;;;;;;5054850;28;20190;-87
2022/09/28 03:59:37;;;;;;;1.20;1.20;;;;;;;;;;5054801;28;20241;-87
2022/09/28 04:02:06;;;;;;;0.93;0.93;;;;;;;;;;5054648;28;20728;-87
2022/09/28 04:04:33;;;;;;;1.10;1.05;;;;;;;;;;5054901;28;20308;-87
2022/09/28 04:07:02;;;;;;;0.93;0.93;;;;;;;;;;5054646;28;20288;-87
2022/09/28 04:09:30;;;;;;;0.90;0.90;;;;;;;;;;5054725;28;20607;-87
2022/09/28 04:11:57;;;;;;;0.80;0.80;;;;;;;;;;5054446;28;20241;-87
2022/09/28 04:14:25;;;;;;;0.80;0.80;;;;;;;;;;5054601;28;20244;-87
2022/09/28 04:16:53;;;;;;;0.98;0.98;;;;;;;;;;5054477;28;20220;-87
2022/09/28 04:19:21;;;;;;;1.05;1.05;;;;;;;;;;5054248;28;20205;-87
2022/09/28 04:21:49;;;;;;;2.38;1.10;;;;;;;;;;5054114;28;20229;-87
2022/09/28 04:24:19;;;;;;;1.40;1.30;;;;;;;;;;5054096;28;20209;-88
2022/09/28 04:26:46;;;;;;;0.90;0.90;;;;;;;;;;5054371;28;20293;-87
2022/09/28 04:29:15;;;;;;;1.00;1.00;;;;;;;;;;5054221;28;20281;-88
2022/09/28 04:31:45;;;;;;;1.02;1.02;;;;;;;;;;5053897;28;20244;-87
2022/09/28 04:34:16;;;;;;;1.10;1.10;;;;;;;;;;5053952;28;20300;-87
2022/09/28 04:36:44;;;;;;;1.10;1.10;;;;;;;;;;5053904;28;20190;-86
2022/09/28 04:39:12;;;;;;;1.10;1.10;;;;;;;;;;5054244;28;20566;-87
2022/09/28 04:41:41;;;;;;;1.33;1.23;;;;;;;;;;5053816;28;20650;-87
2022/09/28 04:44:09;;;;;;;1.00;1.00;;;;;;;;;;5053755;28;20280;-87
2022/09/28 04:46:36;;;;;;;1.00;1.00;;;;;;;;;;5053642;28;20669;-88
2022/09/28 04:49:04;;;;;;;1.00;1.00;;;;;;;;;;5053864;28;20626;-87
2022/09/28 04:51:32;;;;;;;1.50;1.40;;;;;;;;;;5053470;28;20309;-87
2022/09/28 04:54:00;;;;;;;1.48;1.38;;;;;;;;;;5053956;28;20247;-87
2022/09/28 04:56:28;;;;;;;1.10;1.10;;;;;;;;;;5053696;28;20233;-87
2022/09/28 04:58:56;;;;;;;1.00;1.00;;;;;;;;;;5053577;28;20267;-87
2022/09/28 05:01:24;;;;;;;1.00;1.00;;;;;;;;;;5053469;28;20197;-87
2022/09/28 05:03:52;;;;;;;1.33;1.23;;;;;;;;;;5053631;28;20208;-88
2022/09/28 05:06:21;;;;;;;1.15;1.08;;;;;;;;;;5053336;28;20212;-87
2022/09/28 05:08:48;;;;;;;1.25;1.17;;;;;;;;;;5053445;28;20198;-87
2022/09/28 05:11:17;;;;;;;0.88;0.88;;;;;;;;;;5053021;28;20312;-87
2022/09/28 05:13:47;;;;;;;1.23;1.10;;;;;;;;;;5053522;28;20202;-87
2022/09/28 05:16:17;;;;;;;1.05;1.00;;;;;;;;;;5053108;28;20198;-87
2022/09/28 05:18:44;;;;;;;1.40;1.30;;;;;;;;;;5053364;28;20297;-87
2022/09/28 05:21:13;;;;;;;1.38;1.30;;;;;;;;;;5053315;28;20196;-87
2022/09/28 05:23:40;;;;;;;3.80;1.40;;;;;;;;;;5053044;28;20190;-86
2022/09/28 05:26:08;;;;;;;1.60;1.50;;;;;;;;;;5053079;28;20193;-87
2022/09/28 05:28:36;;;;;;;2.25;2.05;;;;;;;;;;5053212;28;20676;-87
2022/09/28 05:31:05;;;;;;;1.52;1.42;;;;;;;;;;5053109;28;20227;-84
2022/09/28 05:33:35;;;;;;;3.05;2.00;;;;;;;;;;5053020;28;20190;-86
2022/09/28 05:36:18;;;;;;;1.95;1.85;;;;;;;;;;5085705;23;20221;-83
2022/09/28 05:38:48;;;;;;;2.22;1.98;;;;;;;;;;5074125;28;20201;-83
2022/09/28 05:41:15;;;;;;;2.25;2.10;;;;;;;;;;5061673;23;20790;-83
2022/09/28 05:43:44;;;;;;;1.95;1.85;;;;;;;;;;5014893;28;20201;-83
2022/09/28 05:46:12;;;;;;;1.60;1.50;;;;;;;;;;5028532;28;20626;-82
2022/09/28 05:48:41;;;;;;;1.65;1.55;;;;;;;;;;5014022;28;20290;-81
2022/09/28 05:51:09;;;;;;;1.17;1.17;;;;;;;;;;5012563;28;20314;-81
2022/09/28 05:53:36;;;;;;;1.95;1.85;;;;;;;;;;5013831;28;20214;-83
2022/09/28 05:56:04;;;;;;;1.70;1.60;;;;;;;;;;5015242;28;20317;-82
2022/09/28 05:58:31;;;;;;;1.65;1.55;;;;;;;;;;5014757;28;20188;-81
2022/09/28 06:00:59;;;;;;;1.25;1.15;;;;;;;;;;5015808;28;20639;-81
2022/09/28 06:03:27;;;;;;;1.00;1.00;;;;;;;;;;5019675;28;20282;-81
2022/09/28 06:05:56;;;;;;;0.98;0.98;;;;;;;;;;5019564;28;20222;-80
2022/09/28 06:08:23;;;;;;;1.20;1.10;;;;;;;;;;5019831;28;20297;-82
2022/09/28 06:10:51;;;;;;;1.20;1.10;;;;;;;;;;5019672;28;20230;-82
2022/09/28 06:13:19;;;;;;;1.60;1.50;;;;;;;;;;5019382;28;20207;-82
2022/09/28 06:15:46;;;;;;;2.13;1.17;;;;;;;;;;5020291;28;20230;-81
2022/09/28 06:18:14;;;;;;;1.40;1.30;;;;;;;;;;5020293;28;20261;-82
2022/09/28 06:20:42;;;;;;;1.30;1.20;;;;;;;;;;5019496;28;20297;-81
2022/09/28 06:23:12;;;;;;;1.13;1.13;;;;;;;;;;5019620;28;20209;-83
2022/09/28 06:25:40;;;;;;;1.13;1.13;;;;;;;;;;5002277;28;20314;-83
2022/09/28 06:28:11;;;;;;;1.30;1.20;;;;;;;;;;5000108;28;20286;-83
2022/09/28 06:30:38;;;;;;;1.42;1.30;;;;;;;;;;5018021;28;20195;-83
2022/09/28 06:33:09;;;;;;;1.70;1.58;;;;;;;;;;5019859;28;20226;-84
2022/09/28 06:35:37;;;;;;;1.60;1.50;;;;;;;;;;5019240;28;20910;-83
2022/09/28 06:38:05;;;;;;;1.55;1.42;;;;;;;;;;5018767;28;20295;-83
2022/09/28 06:40:34;;;;;;;1.40;1.30;;;;;;;;;;5019310;28;20183;-83
2022/09/28 06:43:08;;;;;;;2.10;1.90;;;;;;;;;;5019820;28;20187;-80
2022/09/28 06:45:36;;;;;;;1.42;1.33;;;;;;;;;;5018576;28;20265;-81
2022/09/28 06:48:05;;;;;;;1.83;1.60;;;;;;;;;;5018429;28;20302;-81
2022/09/28 06:50:36;;;;;;;1.55;1.45;;;;;;;;;;4999171;28;20188;-81
2022/09/28 06:53:04;;;;;;;1.88;1.58;;;;;;;;;;4998853;28;20281;-80
2022/09/28 06:55:33;;;;;;;1.85;1.75;;;;;;;;;;4998860;28;20227;-82
2022/09/28 06:58:02;;;;;;;1.80;1.70;;;;;;;;;;4999061;28;20298;-81
2022/09/28 07:00:32;;;;;;;2.55;2.35;;;;;;;;;;5008769;28;20210;-80
2022/09/28 07:03:00;;;;;;;3.40;3.10;;;;;;;;;;5018777;28;20628;-80
2022/09/28 07:05:28;;;;;;;2.42;2.20;;;;;;;;;;5018197;28;20226;-83
2022/09/28 07:07:56;;;;;;;2.65;2.45;;;;;;;;;;5019292;28;20224;-79
2022/09/28 07:10:26;;;;;;;3.30;3.00;;;;;;;;;;5018312;28;20227;-79
2022/09/28 07:12:56;;;;;;;2.90;2.70;;;;;;;;;;5016728;28;20226;-80
2022/09/28 07:15:25;;;;;;;3.00;2.75;;;;;;;;;;5014997;28;20301;-80
2022/09/28 07:17:58;;;;;;;2.85;2.45;;;;;;;;;;5015197;28;20203;-79
2022/09/28 07:20:25;;;;;;;3.00;2.80;;;;;;;;;;5015268;28;20198;-79
2022/09/28 07:22:56;;;;;;;2.58;2.35;;;;;;;;;;5015201;28;20294;-81
2022/09/28 07:25:25;;;;;;;3.47;2.45;;;;;;;;;;5013474;28;20233;-80
2022/09/28 07:27:58;;;;;;;2.42;2.22;;;;;;;;;;4995434;28;20200;-79
2022/09/28 07:30:26;;;;;;;2.88;2.60;;;;;;;;;;5001689;28;20210;-80
2022/09/28 07:32:54;;;;;;;2.63;2.22;;;;;;;;;;5014470;28;20251;-81
2022/09/28 07:35:22;;;;;;;2.28;1.90;;;;;;;;;;5014177;28;20219;-79
2022/09/28 07:37:49;;;;;;;2.30;2.10;;;;;;;;;;5014722;28;20636;-79
2022/09/28 07:43:06;;;;;;;3.00;2.80;;;;;;;;;;5014826;28;20686;-82
2022/09/28 07:45:35;;;;;;;2.80;2.60;;;;;;;;;;5014473;28;20241;-79
2022/09/28 07:48:03;;;;;;;2.45;2.25;;;;;;;;;;5011510;28;20290;-79
2022/09/28 07:50:31;;;;;;;2.60;2.40;;;;;;;;;;5014694;28;20199;-79
2022/09/28 07:52:59;;;;;;;2.78;2.58;;;;;;;;;;5014428;28;20217;-80
2022/09/28 07:55:26;;;;;;;2.90;2.60;;;;;;;;;;5014525;28;20219;-80
2022/09/28 07:58:00;;;;;;;2.50;2.35;;;;;;;;;;5001891;28;20267;-79
2022/09/28 08:00:31;;;;;;;2.70;2.50;;;;;;;;;;5002948;28;20214;-79
2022/09/28 08:03:00;;;;;;;3.88;3.13;;;;;;;;;;4999167;28;20659;-80
2022/09/28 08:05:30;;;;;;;5.53;3.00;;;;;;;;;;5008264;28;20306;-80
2022/09/28 08:07:58;;;;;;;3.28;2.97;;;;;;;;;;5014416;28;20613;-79
2022/09/28 08:10:26;;;;;;;2.50;2.38;;;;;;;;;;5014330;28;20257;-80
2022/09/28 08:12:55;;;;;;;3.22;2.92;;;;;;;;;;5013912;28;20262;-79
2022/09/28 08:15:22;;;;;;;2.25;2.05;;;;;;;;;;5014017;28;20227;-79
2022/09/28 08:17:51;;;;;;;2.58;2.38;;;;;;;;;;5014144;28;20295;-79
2022/09/28 08:23:04;;;;;;;2.00;1.80;;;;;;;;;;5014163;28;20699;-80
2022/09/28 08:25:33;;;;;;;2.60;2.40;;;;;;;;;;5014127;28;20695;-80
2022/09/28 08:28:01;;;;;;;2.85;2.53;;;;;;;;;;5014172;28;20659;-79
2022/09/28 08:30:28;;;;;;;3.00;2.70;;;;;;;;;;5013882;28;20213;-79
2022/09/28 08:32:57;;;;;;;3.10;2.80;;;;;;;;;;5013691;28;20313;-80
2022/09/28 08:35:25;;;;;;;2.92;2.70;;;;;;;;;;5013691;28;20309;-80
2022/09/28 08:37:53;;;;;;;2.03;1.92;;;;;;;;;;5013636;28;20183;-80
2022/09/28 08:40:24;;;;;;;1.75;1.60;;;;;;;;;;5014043;28;20552;-80
2022/09/28 08:42:54;;;;;;;2.42;2.22;;;;;;;;;;5014009;28;20219;-81
2022/09/28 08:45:26;;;;;;;2.30;2.10;;;;;;;;;;5013779;28;20222;-79
2022/09/28 08:50:51;;;;;;;2.60;2.40;;;;;;;;;;5013524;28;20651;-79
2022/09/28 08:53:38;;;;;;;2.67;2.47;;;;;;;;;;5013562;28;20231;-79
2022/09/28 08:56:11;;;;;;;3.28;2.97;;;;;;;;;;5013850;28;20215;-80
2022/09/28 08:58:42;;;;;;;3.60;2.58;;;;;;;;;;5013264;28;20203;-81
2022/09/28 09:01:15;;;;;;;2.80;2.60;;;;;;;;;;5012306;28;20281;-81
2022/09/28 09:03:44;;;;;;;2.30;2.20;;;;;;;;;;5013437;28;20607;-79
2022/09/28 09:06:22;;;;;;;4.57;3.10;;;;;;;;;;4996717;28;20226;-79
2022/09/28 09:09:03;;;;;;;2.75;2.47;;;;;;;;;;5013534;28;20285;-79
2022/09/28 09:11:57;;;;;;;2.50;2.30;;;;;;;;;;5011474;28;20238;-80
2022/09/28 09:14:51;;;;;;;2.38;2.20;;;;;;;;;;5012898;28;20219;-80
2022/09/28 09:17:26;;;;;;;2.47;2.33;;;;;;;;;;5012493;28;20277;-79
2022/09/28 09:19:58;;;;;;;2.45;2.25;;;;;;;;;;5011392;28;20188;-80
2022/09/28 09:22:39;;;;;;;3.60;2.40;;;;;;;;;;5013416;28;20183;-80
2022/09/28 09:25:18;;;;;;;2.40;2.20;;;;;;;;;;5012839;28;20222;-80
2022/09/28 09:28:11;;;;;;;2.35;2.15;;;;;;;;;;5013178;28;20539;-80
2022/09/28 09:30:47;;;;;;;3.78;2.85;;;;;;;;;;5012635;28;20282;-81
2022/09/28 09:33:52;;;;;;;2.40;2.05;;;;;;;;;;5013069;28;20727;-79
2022/09/28 09:36:35;;;;;;;2.42;2.22;;;;;;;;;;4992484;28;20227;-80
2022/09/28 09:39:21;;;;;;;3.72;2.50;;;;;;;;;;4993088;28;20756;-80
2022/09/28 09:42:05;;;;;;;2.28;2.15;;;;;;;;;;5000646;28;20210;-80
2022/09/28 09:45:00;;;;;;;2.85;2.13;;;;;;;;;;5012751;28;20245;-79
2022/09/28 09:47:33;;;;;;;2.30;2.10;;;;;;;;;;5010018;28;20579;-79
2022/09/28 09:50:05;;;;;;;2.53;2.17;;;;;;;;;;5010629;28;20302;-81
2022/09/28 09:52:44;;;;;;;2.38;2.17;;;;;;;;;;5012461;28;20207;-79
2022/09/28 09:55:17;;;;;;;2.10;1.90;;;;;;;;;;5012078;28;20210;-80
2022/09/28 09:57:49;;;;;;;2.25;2.10;;;;;;;;;;5011553;28;20564;-80
2022/09/28 10:00:18;;;;;;;2.50;2.30;;;;;;;;;;5010841;28;20201;-81
2022/09/28 10:02:47;;;;;;;1.90;1.80;;;;;;;;;;5011756;28;20209;-81
2022/09/28 10:05:22;;;;;;;3.65;3.35;;;;;;;;;;5011274;28;20230;-81
2022/09/28 10:07:54;;;;;;;3.35;2.17;;;;;;;;;;5013369;28;20270;-81
2022/09/28 10:10:27;;;;;;;2.30;2.10;;;;;;;;;;5012374;28;20286;-81
2022/09/28 10:12:55;;;;;;;2.13;2.03;;;;;;;;;;5012638;28;20589;-81
2022/09/28 10:15:26;;;;;;;3.13;2.88;;;;;;;;;;5012423;28;20306;-79
2022/09/28 10:17:54;;;;;;;4.05;2.90;;;;;;;;;;5011887;28;20213;-79
2022/09/28 10:20:22;;;;;;;4.95;3.10;;;;;;;;;;5012500;28;20242;-81
2022/09/28 10:22:52;;;;;;;2.65;2.45;;;;;;;;;;5012472;28;20213;-79
2022/09/28 10:25:20;;;;;;;2.80;2.60;;;;;;;;;;5012500;28;20215;-80
2022/09/28 10:27:51;;;;;;;4.70;2.90;;;;;;;;;;5011832;28;20294;-81
2022/09/28 10:30:22;;;;;;;3.90;2.50;;;;;;;;;;5012480;28;20199;-80
2022/09/28 10:32:52;;;;;;;2.55;1.92;;;;;;;;;;5012213;28;20655;-81
2022/09/28 10:35:26;;;;;;;1.90;1.77;;;;;;;;;;5010504;28;20237;-80
2022/09/28 10:37:59;;;;;;;1.95;1.67;;;;;;;;;;5011977;28;20199;-83
2022/09/28 10:40:39;;;;;;;2.03;1.52;;;;;;;;;;5010154;28;20202;-80
2022/09/28 10:43:16;;;;;;;1.60;1.50;;;;;;;;;;5011785;28;20186;-83
2022/09/28 10:45:45;;;;;;;1.20;1.20;;;;;;;;;;5010796;28;20225;-83
2022/09/28 10:48:19;;;;;;;1.40;1.30;;;;;;;;;;5014731;28;20653;-79
2022/09/28 10:50:59;;;;;;;1.40;1.30;;;;;;;;;;5016169;28;20271;-82
2022/09/28 10:53:28;;;;;;;1.83;1.73;;;;;;;;;;5011065;28;20195;-83
2022/09/28 10:56:03;;;;;;;1.55;1.45;;;;;;;;;;5015395;28;20297;-81
2022/09/28 10:58:39;;;;;;;1.88;1.77;;;;;;;;;;5015059;28;20195;-79
2022/09/28 11:01:10;;;;;;;1.52;1.38;;;;;;;;;;5015298;28;20276;-81
2022/09/28 11:03:50;;;;;;;1.90;1.80;;;;;;;;;;5015681;28;20210;-82
2022/09/28 11:06:26;;;;;;;1.80;1.70;;;;;;;;;;5015710;28;20296;-82
2022/09/28 11:08:56;;;;;;;2.67;2.20;;;;;;;;;;5015485;28;20183;-80
2022/09/28 11:11:24;;;;;;;2.15;1.98;;;;;;;;;;5015700;28;20285;-80
2022/09/28 11:13:54;;;;;;;2.60;2.40;;;;;;;;;;5030349;28;20234;-80
2022/09/28 11:16:28;;;;;;;2.85;2.40;;;;;;;;;;5035358;28;20251;-80
2022/09/28 11:18:57;;;;;;;1.40;1.30;;;;;;;;;;5035061;28;20190;-81
2022/09/28 11:21:27;;;;;;;2.42;2.22;;;;;;;;;;5034987;28;20221;-80
2022/09/28 11:24:05;;;;;;;1.85;1.75;;;;;;;;;;5034275;28;20229;-79
2022/09/28 11:26:37;;;;;;;3.20;2.08;;;;;;;;;;5020754;28;20648;-80
2022/09/28 11:29:07;;;;;;;2.15;2.03;;;;;;;;;;5014656;28;20278;-80
2022/09/28 11:31:36;;;;;;;2.25;1.90;;;;;;;;;;5012667;28;20195;-80
2022/09/28 11:34:08;;;;;;;2.20;2.00;;;;;;;;;;5014976;28;20241;-80
2022/09/28 11:37:03;;;;;;;2.25;2.05;;;;;;;;;;5007427;28;20764;-80
2022/09/28 11:39:41;;;;;;;2.30;2.10;;;;;;;;;;4995231;28;20250;-80
2022/09/28 11:42:22;;;;;;;2.15;1.95;;;;;;;;;;5004055;28;20238;-81
2022/09/28 11:44:50;;;;;;;2.00;1.90;;;;;;;;;;5045177;23;20225;-81
2022/09/28 11:47:47;;;;;;;1.60;1.50;;;;;;;;;;5072182;28;20300;-80
2022/09/28 11:50:21;;;;;;;2.40;2.10;;;;;;;;;;5072579;28;20891;-80
2022/09/28 11:52:56;;;;;;;2.08;1.98;;;;;;;;;;5072770;28;20187;-80
2022/09/28 11:55:31;;;;;;;3.13;2.17;;;;;;;;;;5073890;28;20282;-81
2022/09/28 11:58:08;;;;;;;1.88;1.77;;;;;;;;;;5075950;28;20184;-78
2022/09/28 12:00:40;;;;;;;1.63;1.52;;;;;;;;;;5055224;28;20229;-79
2022/09/28 12:03:12;;;;;;;1.83;1.73;;;;;;;;;;5055352;28;20550;-79
2022/09/28 12:05:42;;;;;;;2.42;1.90;;;;;;;;;;5055014;28;20685;-79
2022/09/28 12:08:16;;;;;;;2.38;2.17;;;;;;;;;;5055162;28;20255;-79
2022/09/28 12:10:51;;;;;;;2.28;2.08;;;;;;;;;;5054519;28;20232;-79
2022/09/28 12:13:21;;;;;;;1.92;1.83;;;;;;;;;;5054691;28;20184;-79
2022/09/28 12:15:52;;;;;;;2.03;1.92;;;;;;;;;;5054779;28;20666;-79
2022/09/28 12:18:24;;;;;;;2.42;2.22;;;;;;;;;;5055077;28;20622;-79
2022/09/28 12:21:08;;;;;;;2.47;2.25;;;;;;;;;;5054072;28;20182;-79
2022/09/28 12:23:36;;;;;;;1.70;1.60;;;;;;;;;;5054336;28;20557;-79
2022/09/28 12:26:16;;;;;;;1.58;1.48;;;;;;;;;;5053930;28;20201;-79
2022/09/28 12:28:47;;;;;;;2.05;1.90;;;;;;;;;;5054847;28;20190;-79
2022/09/28 12:31:18;;;;;;;2.30;2.10;;;;;;;;;;5054546;28;20185;-78
2022/09/28 12:33:48;;;;;;;2.10;1.90;;;;;;;;;;5054337;28;20734;-79
2022/09/28 12:36:29;;;;;;;1.92;1.73;;;;;;;;;;5054261;28;20206;-78
2022/09/28 12:39:15;;;;;;;1.58;1.48;;;;;;;;;;5054568;28;20836;-79
2022/09/28 12:41:58;;;;;;;1.88;1.77;;;;;;;;;;5054788;28;20556;-78
2022/09/28 12:45:05;;;;;;;1.50;1.38;;;;;;;;;;5058399;28;20232;-80
2022/09/28 12:48:07;;;;;;;2.33;1.52;;;;;;;;;;5048413;28;20269;-81
2022/09/28 12:50:38;;;;;;;0.93;0.93;;;;;;;;;;5057941;28;20212;-79
2022/09/28 12:53:31;;;;;;;1.45;1.35;;;;;;;;;;5059188;28;20276;-77
2022/09/28 12:56:05;;;;;;;1.60;1.50;;;;;;;;;;5039464;28;20250;-78
2022/09/28 12:58:54;;;;;;;2.50;2.30;;;;;;;;;;5040323;28;20189;-78
2022/09/28 13:01:46;;;;;;;2.03;1.83;;;;;;;;;;5053455;28;20241;-79
2022/09/28 13:04:46;;;;;;;1.50;1.40;;;;;;;;;;5059962;28;20678;-81
2022/09/28 13:07:20;;;;;;;3.15;1.42;;;;;;;;;;5056603;28;20205;-81
2022/09/28 13:10:00;;;;;;;1.42;1.30;;;;;;;;;;5057295;28;20348;-79
2022/09/28 13:12:39;;;;;;;1.00;1.00;;;;;;;;;;5048091;28;20225;-81
2022/09/28 13:15:28;;;;;;;2.08;1.88;;;;;;;;;;5058018;28;20225;-81
2022/09/28 13:18:03;;;;;;;2.10;2.00;;;;;;;;;;5057858;28;20245;-80
2022/09/28 13:21:05;;;;;;;1.90;1.80;;;;;;;;;;5057756;28;20264;-80
2022/09/28 13:23:37;;;;;;;2.08;1.95;;;;;;;;;;5057666;28;20665;-80
2022/09/28 13:26:19;;;;;;;2.20;2.00;;;;;;;;;;5056791;28;20182;-80
2022/09/28 13:28:49;;;;;;;2.03;1.92;;;;;;;;;;5057269;28;20217;-80
2022/09/28 13:31:21;;;;;;;2.15;1.95;;;;;;;;;;5057121;28;20209;-79
2022/09/28 13:33:49;;;;;;;2.42;2.22;;;;;;;;;;5057318;28;20186;-78
2022/09/28 13:36:38;;;;;;;2.00;1.90;;;;;;;;;;5056891;28;20225;-78
2022/09/28 13:39:47;;;;;;;1.90;1.80;;;;;;;;;;5057317;28;20269;-81
2022/09/28 13:42:39;;;;;;;2.17;1.98;;;;;;;;;;5058092;28;20206;-78
2022/09/28 13:45:34;;;;;;;1.85;1.75;;;;;;;;;;5040709;28;20261;-79
2022/09/28 13:48:14;;;;;;;2.15;1.95;;;;;;;;;;5046644;28;20652;-79
2022/09/28 13:51:32;;;;;;;1.50;1.40;;;;;;;;;;5057106;28;20721;-78
2022/09/28 13:54:17;;;;;;;1.45;1.35;;;;;;;;;;5038588;28;20614;-79
2022/09/28 13:56:52;;;;;;;1.23;1.23;;;;;;;;;;5056499;28;20210;-80
2022/09/28 13:59:26;;;;;;;1.50;1.40;;;;;;;;;;5057098;28;20216;-80
2022/09/28 14:02:02;;;;;;;1.48;1.38;;;;;;;;;;5056491;28;20225;-80
2022/09/28 14:05:03;;;;;;;1.08;1.08;;;;;;;;;;5057613;28;20709;-79
2022/09/28 14:08:11;;;;;;;0.98;0.98;;;;;;;;;;5057357;28;20188;-80
2022/09/28 14:10:50;;;;;;;1.70;1.60;;;;;;;;;;5057684;28;20189;-78
2022/09/28 14:14:01;;;;;;;1.42;1.33;;;;;;;;;;5057217;28;20193;-78
2022/09/28 14:16:33;;;;;;;1.50;1.40;;;;;;;;;;5057346;28;20221;-80
2022/09/28 14:19:05;;;;;;;1.55;1.40;;;;;;;;;;5059530;28;20276;-79
2022/09/28 14:22:07;;;;;;;1.60;1.50;;;;;;;;;;5059312;28;20191;-78
2022/09/28 14:24:58;;;;;;;2.38;2.17;;;;;;;;;;5063834;28;20251;-77
2022/09/28 14:28:00;;;;;;;2.20;1.88;;;;;;;;;;5052954;28;20276;-78
2022/09/28 14:30:33;;;;;;;1.92;1.83;;;;;;;;;;5063038;28;20547;-79
2022/09/28 14:33:01;;;;;;;1.63;1.52;;;;;;;;;;5062513;28;20202;-80
2022/09/28 14:35:32;;;;;;;2.28;2.08;;;;;;;;;;5061998;28;20805;-79
2022/09/28 14:41:12;;;;;;;3.08;2.53;;;;;;;;;;5062335;28;20188;-78
2022/09/28 14:44:02;;;;;;;2.20;2.00;;;;;;;;;;5061008;28;20200;-77
2022/09/28 14:46:36;;;;;;;2.05;1.92;;;;;;;;;;5062285;28;20186;-78
2022/09/28 14:49:23;;;;;;;2.15;2.05;;;;;;;;;;5062015;28;20209;-78
2022/09/28 14:52:03;;;;;;;2.10;1.90;;;;;;;;;;5060137;28;20201;-77
2022/09/28 14:54:45;;;;;;;2.70;2.50;;;;;;;;;;5060722;28;20321;-77
2022/09/28 14:57:20;;;;;;;3.45;2.33;;;;;;;;;;5059563;28;20213;-76
2022/09/28 14:59:47;;;;;;;3.00;2.80;;;;;;;;;;5059552;28;20273;-77
2022/09/28 15:02:25;;;;;;;3.28;2.80;;;;;;;;;;5059368;28;20201;-77
2022/09/28 15:04:58;;;;;;;3.40;3.10;;;;;;;;;;5059858;28;20229;-76
2022/09/28 15:07:28;;;;;;;4.40;3.90;;;;;;;;;;5059012;28;20197;-77
2022/09/28 15:09:58;;;;;;;3.40;3.10;;;;;;;;;;5059128;28;20202;-77
2022/09/28 15:12:28;;;;;;;3.40;3.10;;;;;;;;;;5059114;28;20201;-78
2022/09/28 15:14:58;;;;;;;2.90;2.70;;;;;;;;;;5059296;28;20317;-77
2022/09/28 15:17:28;;;;;;;2.70;2.50;;;;;;;;;;5060565;28;20210;-77
2022/09/28 15:20:17;;;;;;;2.40;2.20;;;;;;;;;;5060674;28;20201;-77
2022/09/28 15:22:47;;;;;;;4.30;3.35;;;;;;;;;;5060866;28;20198;-78
2022/09/28 15:25:18;;;;;;;8.15;5.32;;;;;;;;;;5061387;28;20284;-77
2022/09/28 15:27:51;;;;;;;5.15;2.85;;;;;;;;;;5061973;28;20703;-77
2022/09/28 15:30:26;;;;;;;2.92;2.53;;;;;;;;;;5061509;28;20193;-79
2022/09/28 15:32:55;;;;;;;2.80;2.17;;;;;;;;;;5060909;28;20236;-78